sensor_id;sensor_type;location;lat;lon;timestamp;P1;durP1;ratioP1;P2;durP2;ratioP2
21438;SDS011;10880;50.302;18.736;2024-01-30T00:00:28;15.20;;;7.10;;
21438;SDS011;10880;50.302;18.736;2024-01-30T00:02:57;11.33;;;5.80;;
21438;SDS011;10880;50.302;18.736;2024-01-30T00:05:24;15.93;;;7.47;;
21438;SDS011;10880;50.302;18.736;2024-01-30T00:07:50;16.93;;;7.97;;
21438;SDS011;10880;50.302;18.736;2024-01-30T00:10:17;16.87;;;8.33;;
21438;SDS011;10880;50.302;18.736;2024-01-30T00:12:43;14.47;;;7.00;;
21438;SDS011;10880;50.302;18.736;2024-01-30T00:15:10;12.20;;;6.07;;
21438;SDS011;10880;50.302;18.736;2024-01-30T00:17:37;12.40;;;5.83;;
21438;SDS011;10880;50.302;18.736;2024-01-30T00:20:03;13.90;;;7.27;;
21438;SDS011;10880;50.302;18.736;2024-01-30T00:22:33;12.30;;;6.43;;
21438;SDS011;10880;50.302;18.736;2024-01-30T00:25:00;18.80;;;8.33;;
21438;SDS011;10880;50.302;18.736;2024-01-30T00:27:27;14.13;;;7.60;;
21438;SDS011;10880;50.302;18.736;2024-01-30T00:29:53;16.60;;;8.43;;
21438;SDS011;10880;50.302;18.736;2024-01-30T00:32:20;14.50;;;7.40;;
21438;SDS011;10880;50.302;18.736;2024-01-30T00:34:48;17.70;;;9.33;;
21438;SDS011;10880;50.302;18.736;2024-01-30T00:37:15;17.53;;;8.73;;
21438;SDS011;10880;50.302;18.736;2024-01-30T00:39:42;13.33;;;6.50;;
21438;SDS011;10880;50.302;18.736;2024-01-30T00:42:09;16.33;;;7.50;;
21438;SDS011;10880;50.302;18.736;2024-01-30T00:44:36;20.40;;;8.87;;
21438;SDS011;10880;50.302;18.736;2024-01-30T00:47:05;14.67;;;7.60;;
21438;SDS011;10880;50.302;18.736;2024-01-30T00:49:31;19.57;;;9.07;;
21438;SDS011;10880;50.302;18.736;2024-01-30T00:51:58;13.10;;;7.43;;
21438;SDS011;10880;50.302;18.736;2024-01-30T00:54:25;18.47;;;8.00;;
21438;SDS011;10880;50.302;18.736;2024-01-30T00:56:51;12.73;;;7.27;;
21438;SDS011;10880;50.302;18.736;2024-01-30T00:59:18;14.90;;;7.87;;
21438;SDS011;10880;50.302;18.736;2024-01-30T01:01:45;17.87;;;8.33;;
21438;SDS011;10880;50.302;18.736;2024-01-30T01:04:11;14.57;;;7.50;;
21438;SDS011;10880;50.302;18.736;2024-01-30T01:06:38;12.47;;;6.40;;
21438;SDS011;10880;50.302;18.736;2024-01-30T01:09:05;15.67;;;7.77;;
21438;SDS011;10880;50.302;18.736;2024-01-30T01:11:31;16.87;;;7.67;;
21438;SDS011;10880;50.302;18.736;2024-01-30T01:13:58;11.70;;;6.47;;
21438;SDS011;10880;50.302;18.736;2024-01-30T01:16:25;10.57;;;6.37;;
21438;SDS011;10880;50.302;18.736;2024-01-30T01:18:55;9.73;;;5.83;;
21438;SDS011;10880;50.302;18.736;2024-01-30T01:21:21;13.77;;;7.27;;
21438;SDS011;10880;50.302;18.736;2024-01-30T01:23:48;15.70;;;8.30;;
21438;SDS011;10880;50.302;18.736;2024-01-30T01:26:15;20.80;;;8.93;;
21438;SDS011;10880;50.302;18.736;2024-01-30T01:28:42;13.93;;;7.23;;
21438;SDS011;10880;50.302;18.736;2024-01-30T01:31:10;15.30;;;8.07;;
21438;SDS011;10880;50.302;18.736;2024-01-30T01:33:36;16.40;;;7.77;;
21438;SDS011;10880;50.302;18.736;2024-01-30T01:36:03;13.70;;;7.50;;
21438;SDS011;10880;50.302;18.736;2024-01-30T01:38:30;14.23;;;7.03;;
21438;SDS011;10880;50.302;18.736;2024-01-30T01:40:56;16.97;;;7.87;;
21438;SDS011;10880;50.302;18.736;2024-01-30T01:43:23;22.30;;;10.53;;
21438;SDS011;10880;50.302;18.736;2024-01-30T01:45:49;21.30;;;9.80;;
21438;SDS011;10880;50.302;18.736;2024-01-30T01:48:16;17.10;;;8.90;;
21438;SDS011;10880;50.302;18.736;2024-01-30T01:50:44;18.00;;;8.90;;
21438;SDS011;10880;50.302;18.736;2024-01-30T01:53:11;17.07;;;8.50;;
21438;SDS011;10880;50.302;18.736;2024-01-30T01:55:38;12.77;;;7.10;;
21438;SDS011;10880;50.302;18.736;2024-01-30T01:58:06;11.17;;;5.80;;
21438;SDS011;10880;50.302;18.736;2024-01-30T02:00:34;13.63;;;7.07;;
21438;SDS011;10880;50.302;18.736;2024-01-30T02:03:05;17.73;;;9.10;;
21438;SDS011;10880;50.302;18.736;2024-01-30T02:05:32;18.60;;;8.80;;
21438;SDS011;10880;50.302;18.736;2024-01-30T02:07:59;20.63;;;10.10;;
21438;SDS011;10880;50.302;18.736;2024-01-30T02:10:25;16.50;;;8.50;;
21438;SDS011;10880;50.302;18.736;2024-01-30T02:12:52;20.50;;;9.70;;
21438;SDS011;10880;50.302;18.736;2024-01-30T02:15:19;15.70;;;7.73;;
21438;SDS011;10880;50.302;18.736;2024-01-30T02:17:48;14.13;;;7.60;;
21438;SDS011;10880;50.302;18.736;2024-01-30T02:20:14;13.77;;;7.23;;
21438;SDS011;10880;50.302;18.736;2024-01-30T02:22:41;17.57;;;8.20;;
21438;SDS011;10880;50.302;18.736;2024-01-30T02:25:09;15.93;;;7.50;;
21438;SDS011;10880;50.302;18.736;2024-01-30T02:27:35;19.07;;;9.53;;
21438;SDS011;10880;50.302;18.736;2024-01-30T02:30:02;11.77;;;6.33;;
21438;SDS011;10880;50.302;18.736;2024-01-30T02:32:28;9.20;;;5.53;;
21438;SDS011;10880;50.302;18.736;2024-01-30T02:34:55;12.13;;;6.43;;
21438;SDS011;10880;50.302;18.736;2024-01-30T02:37:22;12.97;;;6.13;;
21438;SDS011;10880;50.302;18.736;2024-01-30T02:39:49;10.33;;;5.57;;
21438;SDS011;10880;50.302;18.736;2024-01-30T02:42:16;16.27;;;8.57;;
21438;SDS011;10880;50.302;18.736;2024-01-30T02:44:42;13.17;;;6.57;;
21438;SDS011;10880;50.302;18.736;2024-01-30T02:47:09;17.10;;;7.70;;
21438;SDS011;10880;50.302;18.736;2024-01-30T02:49:35;19.10;;;9.57;;
21438;SDS011;10880;50.302;18.736;2024-01-30T02:52:02;18.00;;;9.63;;
21438;SDS011;10880;50.302;18.736;2024-01-30T02:54:30;22.97;;;9.87;;
21438;SDS011;10880;50.302;18.736;2024-01-30T02:56:56;16.80;;;7.53;;
21438;SDS011;10880;50.302;18.736;2024-01-30T02:59:23;15.90;;;7.60;;
21438;SDS011;10880;50.302;18.736;2024-01-30T03:01:50;16.03;;;8.20;;
21438;SDS011;10880;50.302;18.736;2024-01-30T03:04:19;12.80;;;7.13;;
21438;SDS011;10880;50.302;18.736;2024-01-30T03:06:46;15.93;;;8.03;;
21438;SDS011;10880;50.302;18.736;2024-01-30T03:09:13;12.27;;;7.00;;
21438;SDS011;10880;50.302;18.736;2024-01-30T03:11:39;15.33;;;7.20;;
21438;SDS011;10880;50.302;18.736;2024-01-30T03:14:06;17.30;;;8.17;;
21438;SDS011;10880;50.302;18.736;2024-01-30T03:16:32;18.10;;;9.47;;
21438;SDS011;10880;50.302;18.736;2024-01-30T03:18:59;19.57;;;9.90;;
21438;SDS011;10880;50.302;18.736;2024-01-30T03:21:27;25.57;;;10.07;;
21438;SDS011;10880;50.302;18.736;2024-01-30T03:23:54;18.73;;;9.63;;
21438;SDS011;10880;50.302;18.736;2024-01-30T03:26:20;25.27;;;11.00;;
21438;SDS011;10880;50.302;18.736;2024-01-30T03:28:47;21.40;;;10.70;;
21438;SDS011;10880;50.302;18.736;2024-01-30T03:31:14;18.30;;;9.80;;
21438;SDS011;10880;50.302;18.736;2024-01-30T03:33:42;18.53;;;10.17;;
21438;SDS011;10880;50.302;18.736;2024-01-30T03:36:08;23.10;;;10.53;;
21438;SDS011;10880;50.302;18.736;2024-01-30T03:38:35;24.33;;;10.30;;
21438;SDS011;10880;50.302;18.736;2024-01-30T03:41:02;23.57;;;11.30;;
21438;SDS011;10880;50.302;18.736;2024-01-30T03:43:28;21.10;;;10.20;;
21438;SDS011;10880;50.302;18.736;2024-01-30T03:45:55;21.57;;;10.27;;
21438;SDS011;10880;50.302;18.736;2024-01-30T03:48:23;19.10;;;10.37;;
21438;SDS011;10880;50.302;18.736;2024-01-30T03:50:51;23.40;;;11.53;;
21438;SDS011;10880;50.302;18.736;2024-01-30T03:53:18;23.20;;;11.53;;
21438;SDS011;10880;50.302;18.736;2024-01-30T03:55:44;25.30;;;12.40;;
21438;SDS011;10880;50.302;18.736;2024-01-30T03:58:11;30.57;;;13.77;;
21438;SDS011;10880;50.302;18.736;2024-01-30T04:00:37;26.87;;;12.93;;
21438;SDS011;10880;50.302;18.736;2024-01-30T04:03:04;23.43;;;11.63;;
21438;SDS011;10880;50.302;18.736;2024-01-30T04:05:31;26.30;;;12.30;;
21438;SDS011;10880;50.302;18.736;2024-01-30T04:07:57;24.27;;;10.90;;
21438;SDS011;10880;50.302;18.736;2024-01-30T04:10:25;20.30;;;10.43;;
21438;SDS011;10880;50.302;18.736;2024-01-30T04:12:53;21.73;;;11.17;;
21438;SDS011;10880;50.302;18.736;2024-01-30T04:15:22;21.27;;;11.30;;
21438;SDS011;10880;50.302;18.736;2024-01-30T04:17:49;24.83;;;12.10;;
21438;SDS011;10880;50.302;18.736;2024-01-30T04:20:15;28.50;;;12.40;;
21438;SDS011;10880;50.302;18.736;2024-01-30T04:22:45;19.80;;;9.73;;
21438;SDS011;10880;50.302;18.736;2024-01-30T04:25:13;25.80;;;11.23;;
21438;SDS011;10880;50.302;18.736;2024-01-30T04:27:39;22.80;;;11.73;;
21438;SDS011;10880;50.302;18.736;2024-01-30T04:30:06;19.60;;;8.73;;
21438;SDS011;10880;50.302;18.736;2024-01-30T04:32:33;22.27;;;10.30;;
21438;SDS011;10880;50.302;18.736;2024-01-30T04:35:00;21.73;;;10.23;;
21438;SDS011;10880;50.302;18.736;2024-01-30T04:37:27;27.53;;;10.23;;
21438;SDS011;10880;50.302;18.736;2024-01-30T04:39:53;34.23;;;13.40;;
21438;SDS011;10880;50.302;18.736;2024-01-30T04:42:19;27.10;;;11.10;;
21438;SDS011;10880;50.302;18.736;2024-01-30T04:44:47;26.50;;;9.33;;
21438;SDS011;10880;50.302;18.736;2024-01-30T04:47:13;26.53;;;9.80;;
21438;SDS011;10880;50.302;18.736;2024-01-30T04:49:40;34.90;;;11.30;;
21438;SDS011;10880;50.302;18.736;2024-01-30T04:52:07;30.23;;;10.60;;
21438;SDS011;10880;50.302;18.736;2024-01-30T04:54:34;37.47;;;12.53;;
21438;SDS011;10880;50.302;18.736;2024-01-30T04:57:01;25.00;;;10.00;;
21438;SDS011;10880;50.302;18.736;2024-01-30T04:59:29;29.30;;;11.20;;
21438;SDS011;10880;50.302;18.736;2024-01-30T05:01:56;21.03;;;9.43;;
21438;SDS011;10880;50.302;18.736;2024-01-30T05:04:22;25.43;;;10.50;;
21438;SDS011;10880;50.302;18.736;2024-01-30T05:06:49;22.67;;;9.97;;
21438;SDS011;10880;50.302;18.736;2024-01-30T05:09:16;20.27;;;9.33;;
21438;SDS011;10880;50.302;18.736;2024-01-30T05:11:44;24.00;;;10.83;;
21438;SDS011;10880;50.302;18.736;2024-01-30T05:14:14;16.57;;;8.57;;
21438;SDS011;10880;50.302;18.736;2024-01-30T05:16:42;14.57;;;8.13;;
21438;SDS011;10880;50.302;18.736;2024-01-30T05:19:15;13.30;;;6.40;;
21438;SDS011;10880;50.302;18.736;2024-01-30T05:21:41;11.77;;;6.33;;
21438;SDS011;10880;50.302;18.736;2024-01-30T05:24:11;14.53;;;7.80;;
21438;SDS011;10880;50.302;18.736;2024-01-30T05:26:38;19.03;;;8.33;;
21438;SDS011;10880;50.302;18.736;2024-01-30T05:29:05;18.53;;;9.10;;
21438;SDS011;10880;50.302;18.736;2024-01-30T05:31:32;13.17;;;7.20;;
21438;SDS011;10880;50.302;18.736;2024-01-30T05:34:00;18.93;;;9.07;;
21438;SDS011;10880;50.302;18.736;2024-01-30T05:36:26;20.13;;;9.97;;
21438;SDS011;10880;50.302;18.736;2024-01-30T05:38:53;25.93;;;12.63;;
21438;SDS011;10880;50.302;18.736;2024-01-30T05:41:20;22.10;;;11.00;;
21438;SDS011;10880;50.302;18.736;2024-01-30T05:43:49;19.33;;;8.77;;
21438;SDS011;10880;50.302;18.736;2024-01-30T05:46:18;21.73;;;10.17;;
21438;SDS011;10880;50.302;18.736;2024-01-30T05:48:45;17.93;;;8.63;;
21438;SDS011;10880;50.302;18.736;2024-01-30T05:51:14;16.47;;;8.10;;
21438;SDS011;10880;50.302;18.736;2024-01-30T05:53:40;20.83;;;9.60;;
21438;SDS011;10880;50.302;18.736;2024-01-30T05:56:07;16.13;;;7.33;;
21438;SDS011;10880;50.302;18.736;2024-01-30T05:58:34;14.53;;;6.80;;
21438;SDS011;10880;50.302;18.736;2024-01-30T06:01:06;15.57;;;7.90;;
21438;SDS011;10880;50.302;18.736;2024-01-30T06:03:34;12.30;;;6.77;;
21438;SDS011;10880;50.302;18.736;2024-01-30T06:06:00;14.87;;;7.83;;
21438;SDS011;10880;50.302;18.736;2024-01-30T06:08:28;17.33;;;8.70;;
21438;SDS011;10880;50.302;18.736;2024-01-30T06:10:54;18.07;;;9.10;;
21438;SDS011;10880;50.302;18.736;2024-01-30T06:13:22;21.70;;;9.33;;
21438;SDS011;10880;50.302;18.736;2024-01-30T06:15:49;21.63;;;9.93;;
21438;SDS011;10880;50.302;18.736;2024-01-30T06:18:16;18.53;;;8.63;;
21438;SDS011;10880;50.302;18.736;2024-01-30T06:20:42;21.67;;;10.23;;
21438;SDS011;10880;50.302;18.736;2024-01-30T06:23:09;21.00;;;10.13;;
21438;SDS011;10880;50.302;18.736;2024-01-30T06:25:36;21.87;;;9.70;;
21438;SDS011;10880;50.302;18.736;2024-01-30T06:28:02;24.63;;;11.27;;
21438;SDS011;10880;50.302;18.736;2024-01-30T06:30:29;22.57;;;9.23;;
21438;SDS011;10880;50.302;18.736;2024-01-30T06:32:55;21.30;;;9.70;;
21438;SDS011;10880;50.302;18.736;2024-01-30T06:35:22;33.20;;;12.77;;
21438;SDS011;10880;50.302;18.736;2024-01-30T06:37:49;26.07;;;11.13;;
21438;SDS011;10880;50.302;18.736;2024-01-30T06:40:15;27.60;;;11.67;;
21438;SDS011;10880;50.302;18.736;2024-01-30T06:42:42;33.83;;;13.23;;
21438;SDS011;10880;50.302;18.736;2024-01-30T06:45:08;29.97;;;12.57;;
21438;SDS011;10880;50.302;18.736;2024-01-30T06:47:37;29.73;;;12.93;;
21438;SDS011;10880;50.302;18.736;2024-01-30T06:50:04;37.07;;;14.77;;
21438;SDS011;10880;50.302;18.736;2024-01-30T06:52:31;31.90;;;12.63;;
21438;SDS011;10880;50.302;18.736;2024-01-30T06:54:57;27.00;;;11.30;;
21438;SDS011;10880;50.302;18.736;2024-01-30T06:57:25;33.00;;;12.77;;
21438;SDS011;10880;50.302;18.736;2024-01-30T06:59:53;27.27;;;11.77;;
21438;SDS011;10880;50.302;18.736;2024-01-30T07:02:20;25.27;;;10.73;;
21438;SDS011;10880;50.302;18.736;2024-01-30T07:04:47;22.93;;;10.23;;
21438;SDS011;10880;50.302;18.736;2024-01-30T07:07:15;18.23;;;9.20;;
21438;SDS011;10880;50.302;18.736;2024-01-30T07:09:41;19.57;;;8.60;;
21438;SDS011;10880;50.302;18.736;2024-01-30T07:12:08;19.07;;;8.70;;
21438;SDS011;10880;50.302;18.736;2024-01-30T07:14:34;24.33;;;10.63;;
21438;SDS011;10880;50.302;18.736;2024-01-30T07:17:01;29.90;;;12.90;;
21438;SDS011;10880;50.302;18.736;2024-01-30T07:19:28;23.37;;;11.37;;
21438;SDS011;10880;50.302;18.736;2024-01-30T07:21:54;23.77;;;9.97;;
21438;SDS011;10880;50.302;18.736;2024-01-30T07:24:21;20.00;;;9.10;;
21438;SDS011;10880;50.302;18.736;2024-01-30T07:26:48;16.53;;;7.80;;
21438;SDS011;10880;50.302;18.736;2024-01-30T07:29:14;18.63;;;8.57;;
21438;SDS011;10880;50.302;18.736;2024-01-30T07:31:41;19.87;;;9.03;;
21438;SDS011;10880;50.302;18.736;2024-01-30T07:34:07;17.40;;;8.00;;
21438;SDS011;10880;50.302;18.736;2024-01-30T07:36:35;16.60;;;7.90;;
21438;SDS011;10880;50.302;18.736;2024-01-30T07:39:01;13.20;;;6.43;;
21438;SDS011;10880;50.302;18.736;2024-01-30T07:41:28;12.40;;;6.20;;
21438;SDS011;10880;50.302;18.736;2024-01-30T07:43:55;8.73;;;5.50;;
21438;SDS011;10880;50.302;18.736;2024-01-30T07:46:21;8.37;;;4.90;;
21438;SDS011;10880;50.302;18.736;2024-01-30T07:48:48;8.73;;;4.30;;
21438;SDS011;10880;50.302;18.736;2024-01-30T07:51:15;14.67;;;7.17;;
21438;SDS011;10880;50.302;18.736;2024-01-30T07:53:41;16.30;;;7.47;;
21438;SDS011;10880;50.302;18.736;2024-01-30T07:56:08;13.40;;;6.33;;
21438;SDS011;10880;50.302;18.736;2024-01-30T07:58:35;12.27;;;6.27;;
21438;SDS011;10880;50.302;18.736;2024-01-30T08:01:01;12.80;;;6.80;;
21438;SDS011;10880;50.302;18.736;2024-01-30T08:03:28;12.80;;;7.00;;
21438;SDS011;10880;50.302;18.736;2024-01-30T08:05:55;12.00;;;6.30;;
21438;SDS011;10880;50.302;18.736;2024-01-30T08:08:22;11.53;;;5.93;;
21438;SDS011;10880;50.302;18.736;2024-01-30T08:10:48;13.47;;;6.80;;
21438;SDS011;10880;50.302;18.736;2024-01-30T08:13:15;14.70;;;6.70;;
21438;SDS011;10880;50.302;18.736;2024-01-30T08:15:44;16.03;;;7.90;;
21438;SDS011;10880;50.302;18.736;2024-01-30T08:18:11;16.00;;;7.70;;
21438;SDS011;10880;50.302;18.736;2024-01-30T08:20:38;24.93;;;11.13;;
21438;SDS011;10880;50.302;18.736;2024-01-30T08:23:04;17.90;;;8.83;;
21438;SDS011;10880;50.302;18.736;2024-01-30T08:25:32;12.60;;;6.40;;
21438;SDS011;10880;50.302;18.736;2024-01-30T08:27:58;10.43;;;5.73;;
21438;SDS011;10880;50.302;18.736;2024-01-30T08:30:25;14.27;;;7.43;;
21438;SDS011;10880;50.302;18.736;2024-01-30T08:32:52;15.80;;;7.97;;
21438;SDS011;10880;50.302;18.736;2024-01-30T08:35:18;16.10;;;8.03;;
21438;SDS011;10880;50.302;18.736;2024-01-30T08:37:45;10.57;;;6.10;;
21438;SDS011;10880;50.302;18.736;2024-01-30T08:40:12;9.63;;;5.60;;
21438;SDS011;10880;50.302;18.736;2024-01-30T08:42:38;8.67;;;5.00;;
21438;SDS011;10880;50.302;18.736;2024-01-30T08:45:05;7.20;;;4.37;;
21438;SDS011;10880;50.302;18.736;2024-01-30T08:47:32;6.70;;;3.97;;
21438;SDS011;10880;50.302;18.736;2024-01-30T08:49:59;12.30;;;6.30;;
21438;SDS011;10880;50.302;18.736;2024-01-30T08:52:25;11.53;;;6.10;;
21438;SDS011;10880;50.302;18.736;2024-01-30T08:54:52;18.87;;;9.10;;
21438;SDS011;10880;50.302;18.736;2024-01-30T08:57:19;11.63;;;6.57;;
21438;SDS011;10880;50.302;18.736;2024-01-30T08:59:46;10.13;;;5.27;;
21438;SDS011;10880;50.302;18.736;2024-01-30T09:02:13;7.13;;;4.47;;
21438;SDS011;10880;50.302;18.736;2024-01-30T09:04:41;7.90;;;4.90;;
21438;SDS011;10880;50.302;18.736;2024-01-30T09:07:09;16.30;;;7.63;;
21438;SDS011;10880;50.302;18.736;2024-01-30T09:09:37;11.93;;;6.47;;
21438;SDS011;10880;50.302;18.736;2024-01-30T09:12:05;12.07;;;6.60;;
21438;SDS011;10880;50.302;18.736;2024-01-30T09:14:35;12.93;;;7.63;;
21438;SDS011;10880;50.302;18.736;2024-01-30T09:17:02;13.17;;;6.90;;
21438;SDS011;10880;50.302;18.736;2024-01-30T09:19:32;11.37;;;5.70;;
21438;SDS011;10880;50.302;18.736;2024-01-30T09:21:59;11.50;;;5.27;;
21438;SDS011;10880;50.302;18.736;2024-01-30T09:24:28;10.03;;;5.70;;
21438;SDS011;10880;50.302;18.736;2024-01-30T09:26:55;8.60;;;5.17;;
21438;SDS011;10880;50.302;18.736;2024-01-30T09:29:21;9.27;;;5.23;;
21438;SDS011;10880;50.302;18.736;2024-01-30T09:31:48;10.30;;;5.67;;
21438;SDS011;10880;50.302;18.736;2024-01-30T09:34:15;14.80;;;7.20;;
21438;SDS011;10880;50.302;18.736;2024-01-30T09:36:42;13.00;;;6.90;;
21438;SDS011;10880;50.302;18.736;2024-01-30T09:39:08;12.40;;;6.37;;
21438;SDS011;10880;50.302;18.736;2024-01-30T09:42:20;12.97;;;7.03;;
21438;SDS011;10880;50.302;18.736;2024-01-30T09:44:25;15.90;;;7.57;;
21438;SDS011;10880;50.302;18.736;2024-01-30T09:46:57;16.40;;;7.97;;
21438;SDS011;10880;50.302;18.736;2024-01-30T09:49:31;17.87;;;8.87;;
21438;SDS011;10880;50.302;18.736;2024-01-30T09:51:58;15.83;;;7.97;;
21438;SDS011;10880;50.302;18.736;2024-01-30T09:54:25;15.23;;;7.90;;
21438;SDS011;10880;50.302;18.736;2024-01-30T09:56:51;11.73;;;6.60;;
21438;SDS011;10880;50.302;18.736;2024-01-30T09:59:18;11.50;;;5.97;;
21438;SDS011;10880;50.302;18.736;2024-01-30T10:01:45;13.60;;;6.77;;
21438;SDS011;10880;50.302;18.736;2024-01-30T10:04:12;11.10;;;5.90;;
21438;SDS011;10880;50.302;18.736;2024-01-30T10:06:40;10.87;;;5.67;;
21438;SDS011;10880;50.302;18.736;2024-01-30T10:09:07;10.50;;;5.67;;
21438;SDS011;10880;50.302;18.736;2024-01-30T10:11:34;8.47;;;5.33;;
21438;SDS011;10880;50.302;18.736;2024-01-30T10:14:01;7.77;;;4.80;;
21438;SDS011;10880;50.302;18.736;2024-01-30T10:16:28;6.73;;;4.30;;
21438;SDS011;10880;50.302;18.736;2024-01-30T10:18:54;6.43;;;4.00;;
21438;SDS011;10880;50.302;18.736;2024-01-30T10:21:21;12.30;;;6.20;;
21438;SDS011;10880;50.302;18.736;2024-01-30T10:23:56;10.47;;;5.33;;
21438;SDS011;10880;50.302;18.736;2024-01-30T10:26:23;9.03;;;4.93;;
21438;SDS011;10880;50.302;18.736;2024-01-30T10:28:49;7.47;;;4.60;;
21438;SDS011;10880;50.302;18.736;2024-01-30T10:31:17;7.00;;;5.20;;
21438;SDS011;10880;50.302;18.736;2024-01-30T10:33:49;10.83;;;5.60;;
21438;SDS011;10880;50.302;18.736;2024-01-30T10:36:15;10.07;;;5.07;;
21438;SDS011;10880;50.302;18.736;2024-01-30T10:38:48;7.70;;;4.63;;
21438;SDS011;10880;50.302;18.736;2024-01-30T10:41:18;9.30;;;5.13;;
21438;SDS011;10880;50.302;18.736;2024-01-30T10:43:50;7.43;;;4.50;;
21438;SDS011;10880;50.302;18.736;2024-01-30T10:49:41;12.03;;;6.40;;
21438;SDS011;10880;50.302;18.736;2024-01-30T10:52:29;10.43;;;5.37;;
21438;SDS011;10880;50.302;18.736;2024-01-30T10:54:59;11.33;;;5.30;;
21438;SDS011;10880;50.302;18.736;2024-01-30T10:57:26;9.63;;;5.30;;
21438;SDS011;10880;50.302;18.736;2024-01-30T10:59:56;8.43;;;5.30;;
21438;SDS011;10880;50.302;18.736;2024-01-30T11:02:24;9.00;;;5.37;;
21438;SDS011;10880;50.302;18.736;2024-01-30T11:04:55;13.07;;;6.47;;
21438;SDS011;10880;50.302;18.736;2024-01-30T11:07:26;13.37;;;6.73;;
21438;SDS011;10880;50.302;18.736;2024-01-30T11:12:27;12.53;;;7.17;;
21438;SDS011;10880;50.302;18.736;2024-01-30T11:15:04;11.63;;;6.37;;
21438;SDS011;10880;50.302;18.736;2024-01-30T11:20:11;12.30;;;6.83;;
21438;SDS011;10880;50.302;18.736;2024-01-30T11:22:40;8.70;;;5.47;;
21438;SDS011;10880;50.302;18.736;2024-01-30T11:25:14;7.93;;;4.87;;
21438;SDS011;10880;50.302;18.736;2024-01-30T11:27:45;16.57;;;7.67;;
21438;SDS011;10880;50.302;18.736;2024-01-30T11:30:27;9.13;;;6.17;;
21438;SDS011;10880;50.302;18.736;2024-01-30T11:35:27;8.60;;;5.30;;
21438;SDS011;10880;50.302;18.736;2024-01-30T11:37:55;8.30;;;5.30;;
21438;SDS011;10880;50.302;18.736;2024-01-30T11:40:25;9.60;;;5.23;;
21438;SDS011;10880;50.302;18.736;2024-01-30T11:42:56;14.37;;;6.97;;
21438;SDS011;10880;50.302;18.736;2024-01-30T11:45:25;14.50;;;6.60;;
21438;SDS011;10880;50.302;18.736;2024-01-30T11:47:56;17.97;;;8.60;;
21438;SDS011;10880;50.302;18.736;2024-01-30T11:50:28;13.43;;;6.77;;
21438;SDS011;10880;50.302;18.736;2024-01-30T11:52:55;9.40;;;5.63;;
21438;SDS011;10880;50.302;18.736;2024-01-30T11:55:23;12.67;;;7.33;;
21438;SDS011;10880;50.302;18.736;2024-01-30T11:57:50;11.93;;;6.63;;
21438;SDS011;10880;50.302;18.736;2024-01-30T12:00:20;11.37;;;7.23;;
21438;SDS011;10880;50.302;18.736;2024-01-30T12:02:50;11.20;;;6.53;;
21438;SDS011;10880;50.302;18.736;2024-01-30T12:05:21;9.53;;;5.70;;
21438;SDS011;10880;50.302;18.736;2024-01-30T12:07:48;8.07;;;5.30;;
21438;SDS011;10880;50.302;18.736;2024-01-30T12:10:15;11.40;;;6.37;;
21438;SDS011;10880;50.302;18.736;2024-01-30T12:12:42;9.87;;;5.50;;
21438;SDS011;10880;50.302;18.736;2024-01-30T12:15:14;9.63;;;5.87;;
21438;SDS011;10880;50.302;18.736;2024-01-30T12:17:41;9.73;;;5.40;;
21438;SDS011;10880;50.302;18.736;2024-01-30T12:22:44;7.97;;;5.03;;
21438;SDS011;10880;50.302;18.736;2024-01-30T12:25:12;10.23;;;5.33;;
21438;SDS011;10880;50.302;18.736;2024-01-30T12:27:41;9.10;;;5.20;;
21438;SDS011;10880;50.302;18.736;2024-01-30T12:30:10;8.30;;;4.90;;
21438;SDS011;10880;50.302;18.736;2024-01-30T12:32:42;9.50;;;5.03;;
21438;SDS011;10880;50.302;18.736;2024-01-30T12:35:17;9.60;;;4.97;;
21438;SDS011;10880;50.302;18.736;2024-01-30T12:37:45;7.10;;;4.10;;
21438;SDS011;10880;50.302;18.736;2024-01-30T12:40:13;8.83;;;5.47;;
21438;SDS011;10880;50.302;18.736;2024-01-30T12:42:40;7.57;;;4.47;;
21438;SDS011;10880;50.302;18.736;2024-01-30T12:45:08;6.57;;;4.10;;
21438;SDS011;10880;50.302;18.736;2024-01-30T12:47:38;7.33;;;3.90;;
21438;SDS011;10880;50.302;18.736;2024-01-30T12:50:05;9.17;;;5.00;;
21438;SDS011;10880;50.302;18.736;2024-01-30T12:52:31;9.57;;;5.40;;
21438;SDS011;10880;50.302;18.736;2024-01-30T12:54:58;10.23;;;5.23;;
21438;SDS011;10880;50.302;18.736;2024-01-30T12:57:25;6.33;;;4.50;;
21438;SDS011;10880;50.302;18.736;2024-01-30T12:59:51;6.37;;;4.40;;
21438;SDS011;10880;50.302;18.736;2024-01-30T13:02:18;8.93;;;4.87;;
21438;SDS011;10880;50.302;18.736;2024-01-30T13:04:45;9.93;;;5.33;;
21438;SDS011;10880;50.302;18.736;2024-01-30T13:07:11;10.20;;;6.17;;
21438;SDS011;10880;50.302;18.736;2024-01-30T13:09:38;8.80;;;5.57;;
21438;SDS011;10880;50.302;18.736;2024-01-30T13:12:07;9.50;;;5.43;;
21438;SDS011;10880;50.302;18.736;2024-01-30T13:14:34;5.57;;;4.07;;
21438;SDS011;10880;50.302;18.736;2024-01-30T13:17:01;4.37;;;3.50;;
21438;SDS011;10880;50.302;18.736;2024-01-30T13:19:28;6.67;;;4.33;;
21438;SDS011;10880;50.302;18.736;2024-01-30T13:21:56;8.00;;;4.57;;
21438;SDS011;10880;50.302;18.736;2024-01-30T13:24:22;6.80;;;4.43;;
21438;SDS011;10880;50.302;18.736;2024-01-30T13:26:52;11.30;;;6.13;;
21438;SDS011;10880;50.302;18.736;2024-01-30T13:29:18;8.40;;;5.80;;
21438;SDS011;10880;50.302;18.736;2024-01-30T13:31:45;10.03;;;5.03;;
21438;SDS011;10880;50.302;18.736;2024-01-30T13:34:12;6.80;;;4.20;;
21438;SDS011;10880;50.302;18.736;2024-01-30T13:36:39;5.87;;;4.30;;
21438;SDS011;10880;50.302;18.736;2024-01-30T13:39:06;6.83;;;4.33;;
21438;SDS011;10880;50.302;18.736;2024-01-30T13:41:35;5.50;;;3.93;;
21438;SDS011;10880;50.302;18.736;2024-01-30T13:44:03;4.67;;;3.60;;
21438;SDS011;10880;50.302;18.736;2024-01-30T13:46:30;4.33;;;3.20;;
21438;SDS011;10880;50.302;18.736;2024-01-30T13:48:57;3.57;;;3.00;;
21438;SDS011;10880;50.302;18.736;2024-01-30T13:51:23;4.73;;;3.37;;
21438;SDS011;10880;50.302;18.736;2024-01-30T13:53:50;8.43;;;5.20;;
21438;SDS011;10880;50.302;18.736;2024-01-30T13:56:16;9.97;;;5.93;;
21438;SDS011;10880;50.302;18.736;2024-01-30T13:58:43;7.20;;;4.20;;
21438;SDS011;10880;50.302;18.736;2024-01-30T14:01:10;5.20;;;3.90;;
21438;SDS011;10880;50.302;18.736;2024-01-30T14:03:36;6.23;;;3.80;;
21438;SDS011;10880;50.302;18.736;2024-01-30T14:06:03;4.63;;;3.57;;
21438;SDS011;10880;50.302;18.736;2024-01-30T14:08:32;6.87;;;4.03;;
21438;SDS011;10880;50.302;18.736;2024-01-30T14:11:01;6.20;;;3.90;;
21438;SDS011;10880;50.302;18.736;2024-01-30T14:13:28;6.47;;;4.33;;
21438;SDS011;10880;50.302;18.736;2024-01-30T14:15:57;10.07;;;5.13;;
21438;SDS011;10880;50.302;18.736;2024-01-30T14:18:23;6.57;;;4.40;;
21438;SDS011;10880;50.302;18.736;2024-01-30T14:20:51;6.27;;;3.87;;
21438;SDS011;10880;50.302;18.736;2024-01-30T14:23:20;4.03;;;3.00;;
21438;SDS011;10880;50.302;18.736;2024-01-30T14:25:47;5.40;;;3.63;;
21438;SDS011;10880;50.302;18.736;2024-01-30T14:28:13;7.07;;;4.10;;
21438;SDS011;10880;50.302;18.736;2024-01-30T14:30:40;5.23;;;3.73;;
21438;SDS011;10880;50.302;18.736;2024-01-30T14:33:06;4.57;;;3.47;;
21438;SDS011;10880;50.302;18.736;2024-01-30T14:35:33;3.33;;;2.70;;
21438;SDS011;10880;50.302;18.736;2024-01-30T14:37:59;14.03;;;6.97;;